Time;durP1;ratioP1;P1;durP2;ratioP2;P2;SDS_P1;SDS_P2;PMS_P1;PMS_P2;Temp;Humidity;BMP_temperature;BMP_pressure;BME280_temperature;BME280_humidity;BME280_pressure;Samples;Min_cycle;Max_cycle;Signal;HPM_P1;HPM_P2
2022/08/17 00:03:16;;;;;;;3.77;2.50;;;;;;;;;;8368719;28;20586;-57
2022/08/17 00:07:16;;;;;;;4.35;2.45;;;;;;;;;;8367169;28;20366;-57
2022/08/17 00:11:22;;;;;;;2.55;2.28;;;;;;;;;;8360138;28;20960;-56
2022/08/17 00:15:22;;;;;;;3.63;2.60;;;;;;;;;;8362699;28;20053;-57
2022/08/17 00:19:23;;;;;;;2.33;2.20;;;;;;;;;;8361671;28;20897;-57
2022/08/17 00:23:24;;;;;;;4.80;2.50;;;;;;;;;;8360926;28;20406;-57
2022/08/17 00:27:24;;;;;;;2.60;2.40;;;;;;;;;;8365822;28;20623;-57
2022/08/17 00:31:25;;;;;;;5.45;2.38;;;;;;;;;;8360502;28;20115;-57
2022/08/17 00:35:26;;;;;;;3.60;2.40;;;;;;;;;;8361301;28;20441;-57
2022/08/17 00:39:26;;;;;;;3.80;2.42;;;;;;;;;;8364068;28;20597;-57
2022/08/17 00:43:30;;;;;;;2.80;2.40;;;;;;;;;;8357847;28;20131;-56
2022/08/17 00:47:30;;;;;;;3.15;2.28;;;;;;;;;;8360353;28;20420;-57
2022/08/17 00:51:33;;;;;;;2.65;2.38;;;;;;;;;;8359088;28;20460;-57
2022/08/17 00:55:34;;;;;;;3.65;2.50;;;;;;;;;;8365003;28;20020;-57
2022/08/17 00:59:39;;;;;;;2.85;2.30;;;;;;;;;;8364013;28;20033;-57
2022/08/17 01:03:39;;;;;;;2.90;2.30;;;;;;;;;;8365119;28;20043;-57
2022/08/17 01:07:40;;;;;;;2.50;2.30;;;;;;;;;;8362340;28;20028;-57
2022/08/17 01:11:40;;;;;;;2.55;2.35;;;;;;;;;;8354898;28;20582;-57
2022/08/17 01:15:44;;;;;;;3.37;2.50;;;;;;;;;;8353782;28;20518;-57
2022/08/17 01:19:45;;;;;;;3.45;2.42;;;;;;;;;;8352512;28;20044;-57
2022/08/17 01:23:45;;;;;;;3.10;2.80;;;;;;;;;;8354442;28;20563;-57
2022/08/17 01:27:45;;;;;;;4.93;2.45;;;;;;;;;;8356942;28;20685;-57
2022/08/17 01:31:48;;;;;;;4.03;2.40;;;;;;;;;;8355810;28;20040;-57
2022/08/17 01:35:48;;;;;;;2.70;2.50;;;;;;;;;;8355872;28;20111;-57
2022/08/17 01:39:50;;;;;;;3.10;2.40;;;;;;;;;;8354237;28;20032;-56
2022/08/17 01:43:53;;;;;;;3.88;2.60;;;;;;;;;;8353155;28;20028;-57
2022/08/17 01:47:53;;;;;;;3.67;2.60;;;;;;;;;;8353586;28;20044;-57
2022/08/17 01:51:54;;;;;;;2.92;2.63;;;;;;;;;;8354545;28;20381;-57
2022/08/17 01:55:56;;;;;;;3.90;2.60;;;;;;;;;;8361488;28;20055;-57
2022/08/17 01:59:56;;;;;;;4.38;3.00;;;;;;;;;;8360989;28;20096;-56
2022/08/17 02:03:57;;;;;;;3.28;2.60;;;;;;;;;;8353926;28;20044;-57
2022/08/17 02:07:58;;;;;;;4.97;2.67;;;;;;;;;;8356889;28;20448;-57
2022/08/17 02:11:59;;;;;;;2.83;2.47;;;;;;;;;;8354606;28;20025;-56
2022/08/17 02:15:59;;;;;;;3.10;2.70;;;;;;;;;;8357044;28;20029;-56
2022/08/17 02:20:00;;;;;;;2.90;2.50;;;;;;;;;;8356093;28;20024;-56
2022/08/17 02:24:00;;;;;;;2.72;2.50;;;;;;;;;;8361302;28;20028;-57
2022/08/17 02:28:01;;;;;;;2.95;2.60;;;;;;;;;;8362761;28;20051;-57
2022/08/17 02:32:01;;;;;;;2.88;2.38;;;;;;;;;;8359905;28;20456;-57
2022/08/17 02:36:02;;;;;;;4.07;2.50;;;;;;;;;;8358814;28;20028;-57
2022/08/17 02:40:03;;;;;;;2.75;2.38;;;;;;;;;;8358037;28;20025;-57
2022/08/17 02:44:04;;;;;;;3.00;2.60;;;;;;;;;;8356421;28;20028;-57
2022/08/17 02:48:04;;;;;;;3.50;2.50;;;;;;;;;;8357940;28;20107;-57
2022/08/17 02:52:06;;;;;;;3.00;2.50;;;;;;;;;;8359015;28;20025;-56
2022/08/17 02:56:06;;;;;;;2.47;2.25;;;;;;;;;;8359815;28;20036;-57
2022/08/17 03:00:11;;;;;;;2.70;2.50;;;;;;;;;;8360351;28;20392;-56
2022/08/17 03:04:11;;;;;;;2.85;2.65;;;;;;;;;;8360733;28;20067;-57
2022/08/17 03:08:11;;;;;;;2.93;2.63;;;;;;;;;;8360199;28;20193;-56
2022/08/17 03:12:13;;;;;;;3.10;2.80;;;;;;;;;;8357477;28;20016;-57
2022/08/17 03:16:13;;;;;;;5.28;2.78;;;;;;;;;;8360329;28;20354;-57
2022/08/17 03:20:15;;;;;;;3.92;2.75;;;;;;;;;;8356693;28;20028;-57
2022/08/17 03:24:15;;;;;;;5.05;2.55;;;;;;;;;;8360534;28;20554;-56
2022/08/17 03:28:16;;;;;;;5.50;2.60;;;;;;;;;;8362828;28;20051;-57
2022/08/17 03:32:16;;;;;;;2.95;2.75;;;;;;;;;;8361486;28;20556;-57
2022/08/17 03:36:16;;;;;;;2.77;2.57;;;;;;;;;;8361608;28;20553;-57
2022/08/17 03:40:16;;;;;;;2.67;2.40;;;;;;;;;;8359278;28;20656;-57
2022/08/17 03:44:16;;;;;;;4.40;2.63;;;;;;;;;;8364652;28;20035;-57
2022/08/17 03:57:06;;;;;;;6.60;2.70;;;;;;;;;;8362528;28;20036;-57
2022/08/17 04:01:06;;;;;;;3.88;2.95;;;;;;;;;;8359422;28;20543;-57
2022/08/17 04:05:07;;;;;;;3.03;2.73;;;;;;;;;;8362626;28;20528;-56
2022/08/17 04:09:08;;;;;;;5.30;2.70;;;;;;;;;;8360914;28;20271;-57
2022/08/17 04:13:08;;;;;;;4.07;2.70;;;;;;;;;;8359403;28;20013;-56
2022/08/17 04:17:08;;;;;;;11.38;3.42;;;;;;;;;;8359743;28;20028;-57
2022/08/17 04:21:09;;;;;;;8.37;3.40;;;;;;;;;;8359888;28;20381;-57
2022/08/17 04:25:16;;;;;;;3.20;2.67;;;;;;;;;;8360750;28;20879;-57
2022/08/17 04:29:16;;;;;;;4.25;2.90;;;;;;;;;;8359171;28;20412;-57
2022/08/17 04:33:18;;;;;;;5.10;3.00;;;;;;;;;;8364655;28;20116;-57
2022/08/17 04:37:18;;;;;;;3.97;2.78;;;;;;;;;;8360650;28;20032;-57
2022/08/17 04:45:38;;;;;;;2.60;2.35;;;;;;;;;;8364737;28;20079;-57
2022/08/17 04:49:39;;;;;;;2.50;2.30;;;;;;;;;;8364015;28;20087;-57
2022/08/17 04:53:40;;;;;;;2.70;2.50;;;;;;;;;;8365690;28;20082;-57
2022/08/17 04:57:40;;;;;;;10.57;2.80;;;;;;;;;;8369029;28;20051;-59
2022/08/17 05:01:42;;;;;;;6.90;2.83;;;;;;;;;;8362921;28;20124;-57
2022/08/17 05:05:48;;;;;;;7.15;2.60;;;;;;;;;;8364404;28;20143;-57
2022/08/17 05:09:48;;;;;;;6.30;2.92;;;;;;;;;;8361060;28;20574;-57
2022/08/17 05:13:48;;;;;;;4.30;2.55;;;;;;;;;;8359360;28;20021;-57
2022/08/17 05:17:49;;;;;;;8.20;2.88;;;;;;;;;;8362150;28;20102;-57
2022/08/17 05:21:50;;;;;;;7.28;2.75;;;;;;;;;;8356405;28;20029;-57
2022/08/17 05:25:51;;;;;;;3.75;2.50;;;;;;;;;;8359571;28;20047;-57
2022/08/17 05:29:52;;;;;;;8.40;2.95;;;;;;;;;;8356947;28;20460;-57
2022/08/17 05:33:52;;;;;;;2.88;2.67;;;;;;;;;;8360113;28;20036;-57
2022/08/17 05:37:52;;;;;;;3.25;2.80;;;;;;;;;;8364397;28;20031;-57
2022/08/17 05:41:53;;;;;;;7.37;3.10;;;;;;;;;;8354788;28;20033;-57
2022/08/17 05:46:13;;;;;;;5.32;2.63;;;;;;;;;;8358798;28;20048;-58
2022/08/17 05:50:20;;;;;;;8.48;2.63;;;;;;;;;;8358820;28;20029;-58
2022/08/17 05:54:39;;;;;;;6.57;2.88;;;;;;;;;;8367806;28;20059;-57
2022/08/17 05:58:52;;;;;;;10.13;2.97;;;;;;;;;;8372832;28;20020;-57
2022/08/17 06:02:55;;;;;;;4.95;2.88;;;;;;;;;;8366975;28;20861;-57
2022/08/17 06:07:16;;;;;;;7.00;2.65;;;;;;;;;;8368069;28;20068;-58
2022/08/17 06:11:21;;;;;;;4.18;2.75;;;;;;;;;;8366472;28;20031;-57
2022/08/17 06:15:29;;;;;;;3.58;3.05;;;;;;;;;;8363870;28;20024;-59
2022/08/17 06:19:34;;;;;;;8.75;3.58;;;;;;;;;;8366374;28;20036;-56
2022/08/17 06:23:36;;;;;;;5.00;3.35;;;;;;;;;;8365232;28;20051;-57
2022/08/17 06:27:40;;;;;;;10.45;3.50;;;;;;;;;;8364901;28;20389;-57
2022/08/17 06:31:40;;;;;;;7.25;3.63;;;;;;;;;;8365914;28;20036;-57
2022/08/17 06:35:47;;;;;;;10.77;3.67;;;;;;;;;;8372251;28;20964;-57
2022/08/17 06:40:06;;;;;;;5.40;3.70;;;;;;;;;;8371337;28;20070;-58
2022/08/17 06:44:18;;;;;;;3.92;3.50;;;;;;;;;;8367294;28;20112;-57
2022/08/17 06:48:23;;;;;;;6.40;3.25;;;;;;;;;;8365150;28;20075;-57
2022/08/17 06:52:26;;;;;;;4.18;3.30;;;;;;;;;;8365606;28;20020;-57
2022/08/17 06:56:41;;;;;;;4.05;3.17;;;;;;;;;;8369320;28;20016;-57
2022/08/17 07:00:44;;;;;;;8.13;3.15;;;;;;;;;;8370971;28;20032;-56
2022/08/17 07:04:47;;;;;;;5.05;3.35;;;;;;;;;;8387414;28;20805;-56
2022/08/17 07:09:01;;;;;;;4.22;3.60;;;;;;;;;;8386761;28;20146;-55
2022/08/17 07:13:01;;;;;;;;;;;;;;;;;;8387363;28;20485;-56
2022/08/17 07:17:04;;;;;;;6.65;3.22;;;;;;;;;;8378278;28;19916;-58
2022/08/17 07:21:08;;;;;;;5.13;3.90;;;;;;;;;;8379304;28;20463;-56
2022/08/17 07:25:11;;;;;;;8.25;4.57;;;;;;;;;;8387583;28;20115;-57
2022/08/17 07:29:14;;;;;;;5.57;4.20;;;;;;;;;;8391011;28;20021;-57
2022/08/17 07:33:25;;;;;;;5.05;3.58;;;;;;;;;;8388503;28;20036;-57
2022/08/17 07:37:26;;;;;;;6.57;3.67;;;;;;;;;;8384674;28;20469;-58
2022/08/17 07:41:26;;;;;;;6.85;4.07;;;;;;;;;;8376352;28;20082;-58
2022/08/17 07:49:46;;;;;;;7.30;3.75;;;;;;;;;;8376269;28;20078;-58
2022/08/17 07:53:47;;;;;;;9.10;4.13;;;;;;;;;;8372396;28;20050;-59
2022/08/17 07:57:54;;;;;;;10.65;4.35;;;;;;;;;;8367314;28;20025;-58
2022/08/17 08:01:57;;;;;;;8.18;3.80;;;;;;;;;;8372309;28;20083;-59
2022/08/17 08:06:01;;;;;;;7.13;4.00;;;;;;;;;;8371818;28;20039;-57
2022/08/17 08:10:14;;;;;;;7.25;3.67;;;;;;;;;;8381140;28;20024;-58
2022/08/17 08:14:25;;;;;;;9.05;4.10;;;;;;;;;;8381669;28;20024;-58
2022/08/17 08:18:35;;;;;;;8.38;4.25;;;;;;;;;;8369312;28;20040;-58
2022/08/17 08:22:48;;;;;;;10.35;4.10;;;;;;;;;;8367139;28;20508;-58
2022/08/17 08:26:48;;;;;;;7.47;4.00;;;;;;;;;;8376400;28;20028;-60
2022/08/17 08:30:56;;;;;;;7.90;4.22;;;;;;;;;;8371684;28;20350;-59
2022/08/17 08:35:02;;;;;;;8.68;4.22;;;;;;;;;;8368752;28;20024;-60
2022/08/17 08:39:04;;;;;;;7.40;4.32;;;;;;;;;;8363902;28;20082;-61
2022/08/17 08:43:05;;;;;;;4.70;3.20;;;;;;;;;;8367571;28;20630;-59
2022/08/17 08:47:26;;;;;;;11.55;3.35;;;;;;;;;;8392624;28;20071;-58
2022/08/17 08:51:34;;;;;;;6.60;4.25;;;;;;;;;;8397872;28;20825;-58
2022/08/17 08:55:38;;;;;;;11.10;5.00;;;;;;;;;;8398008;28;20028;-58
2022/08/17 08:59:44;;;;;;;9.35;4.80;;;;;;;;;;8382503;28;20036;-60
2022/08/17 09:03:55;;;;;;;7.32;5.38;;;;;;;;;;8378347;28;20131;-60
2022/08/17 09:08:19;;;;;;;7.78;5.28;;;;;;;;;;8389709;28;20054;-60
2022/08/17 09:12:24;;;;;;;8.23;4.88;;;;;;;;;;8380272;28;20020;-60
2022/08/17 09:16:29;;;;;;;7.15;4.13;;;;;;;;;;8377419;28;20037;-58
2022/08/17 09:20:37;;;;;;;6.95;4.00;;;;;;;;;;8353087;28;20037;-59
2022/08/17 09:24:42;;;;;;;4.78;3.75;;;;;;;;;;8357940;28;20044;-58
2022/08/17 09:28:47;;;;;;;4.25;3.75;;;;;;;;;;8356829;28;20027;-58
2022/08/17 09:32:54;;;;;;;5.68;3.30;;;;;;;;;;8355718;28;20273;-58
2022/08/17 09:37:02;;;;;;;5.10;3.22;;;;;;;;;;8357439;28;20113;-58
2022/08/17 09:41:06;;;;;;;6.80;3.40;;;;;;;;;;8362971;28;20155;-60
2022/08/17 09:45:14;;;;;;;6.70;3.20;;;;;;;;;;8378940;28;20103;-60
2022/08/17 09:49:25;;;;;;;4.45;3.30;;;;;;;;;;8374132;28;20050;-60
2022/08/17 09:53:26;;;;;;;6.88;3.40;;;;;;;;;;8359998;28;20112;-58
2022/08/17 09:57:35;;;;;;;6.32;4.05;;;;;;;;;;8358942;28;20043;-59
2022/08/17 10:01:45;;;;;;;6.95;4.00;;;;;;;;;;8360492;28;20538;-58
2022/08/17 10:05:55;;;;;;;6.47;3.72;;;;;;;;;;8360387;28;20133;-59
2022/08/17 10:10:13;;;;;;;6.68;4.22;;;;;;;;;;8359506;28;20009;-58
2022/08/17 10:14:22;;;;;;;13.35;5.50;;;;;;;;;;8360428;28;20138;-58
2022/08/17 10:18:28;;;;;;;11.65;4.82;;;;;;;;;;8354070;28;20218;-58
2022/08/17 10:26:52;;;;;;;5.97;4.03;;;;;;;;;;8350974;28;20433;-58
2022/08/17 10:30:53;;;;;;;7.00;3.60;;;;;;;;;;8347822;28;20036;-58
2022/08/17 10:35:13;;;;;;;3.55;3.22;;;;;;;;;;8347974;28;20021;-59
2022/08/17 10:39:21;;;;;;;9.07;2.97;;;;;;;;;;8355652;28;20092;-59
2022/08/17 10:43:24;;;;;;;3.95;2.90;;;;;;;;;;8363833;28;20021;-58
2022/08/17 10:47:45;;;;;;;3.85;2.90;;;;;;;;;;8366427;28;20147;-60
2022/08/17 10:51:46;;;;;;;3.75;2.35;;;;;;;;;;8364788;28;20024;-58
2022/08/17 10:56:05;;;;;;;4.03;2.67;;;;;;;;;;8362747;28;20031;-58
2022/08/17 11:00:09;;;;;;;2.72;2.45;;;;;;;;;;8362972;28;20031;-59
2022/08/17 11:04:09;;;;;;;5.15;2.60;;;;;;;;;;8377232;28;20032;-58
2022/08/17 11:08:16;;;;;;;2.70;2.45;;;;;;;;;;8364978;28;20347;-59
2022/08/17 11:12:31;;;;;;;3.30;2.70;;;;;;;;;;8364352;28;20095;-58
2022/08/17 11:16:37;;;;;;;4.45;2.88;;;;;;;;;;8366768;28;20036;-59
2022/08/17 11:20:38;;;;;;;3.67;2.53;;;;;;;;;;8364378;28;20678;-58
2022/08/17 11:24:41;;;;;;;3.30;2.53;;;;;;;;;;8366385;28;20036;-58
2022/08/17 11:28:49;;;;;;;3.30;2.90;;;;;;;;;;8364702;28;20054;-58
2022/08/17 11:32:50;;;;;;;5.40;2.38;;;;;;;;;;8362820;28;20501;-58
2022/08/17 11:36:50;;;;;;;4.50;2.80;;;;;;;;;;8364448;28;20331;-58
2022/08/17 11:40:56;;;;;;;5.47;2.60;;;;;;;;;;8362727;28;20039;-58
2022/08/17 11:44:59;;;;;;;2.75;2.53;;;;;;;;;;8361705;28;20588;-58
2022/08/17 11:53:38;;;;;;;2.83;2.58;;;;;;;;;;8362619;28;20035;-58
2022/08/17 11:57:41;;;;;;;2.88;2.63;;;;;;;;;;8357557;28;20089;-59
2022/08/17 12:01:50;;;;;;;2.90;2.50;;;;;;;;;;8358535;28;20048;-59
2022/08/17 12:05:59;;;;;;;3.50;3.20;;;;;;;;;;8358382;28;20043;-59
2022/08/17 12:10:00;;;;;;;2.67;2.47;;;;;;;;;;8362418;28;20487;-58
2022/08/17 12:14:00;;;;;;;2.83;2.63;;;;;;;;;;8360505;28;20029;-58
2022/08/17 12:18:01;;;;;;;6.07;2.90;;;;;;;;;;8360750;28;20110;-59
2022/08/17 12:22:08;;;;;;;3.53;2.80;;;;;;;;;;8359973;28;20449;-59
2022/08/17 12:26:15;;;;;;;3.20;2.88;;;;;;;;;;8358832;28;20568;-59
2022/08/17 12:30:18;;;;;;;3.13;2.67;;;;;;;;;;8354306;28;20401;-58
2022/08/17 12:34:25;;;;;;;2.72;2.53;;;;;;;;;;8358368;28;20028;-59
2022/08/17 12:38:25;;;;;;;2.90;2.70;;;;;;;;;;8357888;28;20938;-59
2022/08/17 12:42:29;;;;;;;3.17;2.87;;;;;;;;;;8357239;28;20094;-59
2022/08/17 12:46:34;;;;;;;3.47;2.80;;;;;;;;;;8356428;28;21095;-60
2022/08/17 12:50:35;;;;;;;3.38;2.65;;;;;;;;;;8353170;28;20020;-60
2022/08/17 12:54:51;;;;;;;5.57;2.78;;;;;;;;;;8354567;28;20031;-60
2022/08/17 12:58:55;;;;;;;4.70;2.67;;;;;;;;;;8353519;28;20028;-60
2022/08/17 13:03:04;;;;;;;3.38;2.70;;;;;;;;;;8351761;28;20409;-59
2022/08/17 13:07:05;;;;;;;4.18;2.92;;;;;;;;;;8352716;28;20058;-59
2022/08/17 13:11:17;;;;;;;3.65;2.83;;;;;;;;;;8352334;28;20020;-59
2022/08/17 13:15:23;;;;;;;5.85;2.75;;;;;;;;;;8351910;28;20051;-58
2022/08/17 13:19:25;;;;;;;3.63;2.80;;;;;;;;;;8352961;28;20020;-58
2022/08/17 13:23:28;;;;;;;3.83;2.50;;;;;;;;;;8349766;28;20035;-59
2022/08/17 13:27:28;;;;;;;3.60;2.75;;;;;;;;;;8349233;28;20058;-59
2022/08/17 13:31:32;;;;;;;6.63;3.05;;;;;;;;;;8348179;28;20028;-59
2022/08/17 13:35:33;;;;;;;3.58;2.58;;;;;;;;;;8349447;28;20175;-59
2022/08/17 13:39:39;;;;;;;2.83;2.60;;;;;;;;;;8365271;28;20509;-59
2022/08/17 13:43:43;;;;;;;4.57;2.75;;;;;;;;;;8353131;28;20278;-60
2022/08/17 13:47:43;;;;;;;3.38;2.72;;;;;;;;;;8352145;28;20032;-59
2022/08/17 13:51:45;;;;;;;2.92;2.63;;;;;;;;;;8356481;28;20035;-59
2022/08/17 13:55:46;;;;;;;8.07;2.80;;;;;;;;;;8356853;28;20043;-59
2022/08/17 13:59:49;;;;;;;2.73;2.53;;;;;;;;;;8354943;28;20056;-59
2022/08/17 14:03:49;;;;;;;;;;;;;;;;;;8358862;28;20351;-59
2022/08/17 14:07:53;;;;;;;3.80;2.70;;;;;;;;;;8357820;28;19924;-59
2022/08/17 14:11:55;;;;;;;8.65;3.17;;;;;;;;;;8353008;28;20071;-60
2022/08/17 14:15:55;;;;;;;3.15;2.53;;;;;;;;;;8354475;28;20489;-60
2022/08/17 14:19:57;;;;;;;11.20;2.60;;;;;;;;;;8355715;28;20659;-59
2022/08/17 14:23:57;;;;;;;4.03;2.50;;;;;;;;;;8359403;28;20139;-60
2022/08/17 14:27:57;;;;;;;3.83;2.50;;;;;;;;;;8359542;28;20037;-61
2022/08/17 14:32:01;;;;;;;4.07;2.50;;;;;;;;;;8372005;28;20384;-59
2022/08/17 14:36:02;;;;;;;4.10;2.50;;;;;;;;;;8372965;28;20020;-59
2022/08/17 14:40:07;;;;;;;3.23;2.80;;;;;;;;;;8370877;28;20445;-59
2022/08/17 14:44:11;;;;;;;3.17;2.88;;;;;;;;;;8367930;28;20399;-59
2022/08/17 14:48:11;;;;;;;3.40;2.75;;;;;;;;;;8367104;28;20072;-59
2022/08/17 14:52:12;;;;;;;4.22;2.92;;;;;;;;;;8368002;28;20021;-59
2022/08/17 14:56:12;;;;;;;7.47;3.13;;;;;;;;;;8376706;28;20032;-60
2022/08/17 15:00:13;;;;;;;7.97;3.20;;;;;;;;;;8385389;28;20112;-61
2022/08/17 15:04:17;;;;;;;10.02;3.50;;;;;;;;;;8374204;28;20108;-60
2022/08/17 15:08:18;;;;;;;7.70;3.20;;;;;;;;;;8378114;28;20110;-58
2022/08/17 15:12:20;;;;;;;11.18;3.13;;;;;;;;;;8372243;28;20579;-60
2022/08/17 15:16:22;;;;;;;13.68;3.30;;;;;;;;;;8374378;28;20060;-58
2022/08/17 15:20:25;;;;;;;10.68;3.38;;;;;;;;;;8364904;28;20028;-58
2022/08/17 15:24:25;;;;;;;10.63;3.00;;;;;;;;;;8363389;28;20060;-59
2022/08/17 15:28:25;;;;;;;11.02;3.00;;;;;;;;;;8361329;28;20504;-61
2022/08/17 15:32:25;;;;;;;5.35;2.70;;;;;;;;;;8361924;28;20159;-59
2022/08/17 15:36:26;;;;;;;3.60;3.10;;;;;;;;;;8359367;28;20020;-60
2022/08/17 15:40:27;;;;;;;4.57;2.72;;;;;;;;;;8361156;28;20073;-60
2022/08/17 15:44:27;;;;;;;4.47;2.60;;;;;;;;;;8360277;28;20024;-59
2022/08/17 15:48:40;;;;;;;3.00;2.65;;;;;;;;;;8356711;28;20040;-59
2022/08/17 15:52:41;;;;;;;5.80;2.90;;;;;;;;;;8358629;28;20021;-60
2022/08/17 15:56:42;;;;;;;11.13;3.17;;;;;;;;;;8357213;28;20036;-59
2022/08/17 16:00:42;;;;;;;6.00;2.72;;;;;;;;;;8364479;28;20033;-59
2022/08/17 16:04:42;;;;;;;3.83;2.80;;;;;;;;;;8362231;28;20025;-59
2022/08/17 16:08:43;;;;;;;3.85;2.78;;;;;;;;;;8360998;28;20363;-59
2022/08/17 16:12:44;;;;;;;4.55;2.70;;;;;;;;;;8366446;28;20131;-61
2022/08/17 16:16:44;;;;;;;7.68;2.80;;;;;;;;;;8366473;28;20521;-59
2022/08/17 16:20:45;;;;;;;6.95;2.53;;;;;;;;;;8348847;28;20073;-59
2022/08/17 16:24:45;;;;;;;4.28;2.50;;;;;;;;;;8378695;28;20032;-59
2022/08/17 16:28:45;;;;;;;8.85;3.00;;;;;;;;;;8377752;28;20031;-59
2022/08/17 16:32:46;;;;;;;4.75;2.65;;;;;;;;;;8355678;28;20054;-60
2022/08/17 16:36:47;;;;;;;4.38;2.75;;;;;;;;;;8378875;28;20020;-61
2022/08/17 16:40:48;;;;;;;4.00;2.55;;;;;;;;;;8361793;28;20024;-60
2022/08/17 16:44:48;;;;;;;3.42;2.22;;;;;;;;;;8370877;28;20453;-60
2022/08/17 16:48:48;;;;;;;3.25;2.60;;;;;;;;;;8367512;28;20062;-60
2022/08/17 16:52:49;;;;;;;4.35;2.65;;;;;;;;;;8367333;28;20025;-60
2022/08/17 16:57:24;;;;;;;4.28;2.40;;;;;;;;;;8374693;28;20020;-61
2022/08/17 17:01:26;;;;;;;3.75;2.70;;;;;;;;;;8380027;28;20525;-60
2022/08/17 17:05:49;;;;;;;2.50;2.30;;;;;;;;;;8368677;28;20024;-63
2022/08/17 17:09:54;;;;;;;5.63;2.60;;;;;;;;;;8391822;28;20057;-61
2022/08/17 17:14:00;;;;;;;3.47;2.50;;;;;;;;;;8383270;28;20043;-60
2022/08/17 17:18:02;;;;;;;2.50;2.30;;;;;;;;;;8389371;28;20146;-61
2022/08/17 17:22:28;;;;;;;2.65;2.20;;;;;;;;;;8390243;28;20038;-60
2022/08/17 17:26:28;;;;;;;2.85;2.13;;;;;;;;;;8390509;28;20027;-60
2022/08/17 17:30:36;;;;;;;2.35;2.15;;;;;;;;;;8383083;28;20421;-60
2022/08/17 17:34:44;;;;;;;3.65;2.45;;;;;;;;;;8390266;28;20029;-60
2022/08/17 17:38:51;;;;;;;2.38;2.17;;;;;;;;;;8372661;28;20028;-61
2022/08/17 17:42:53;;;;;;;2.67;2.30;;;;;;;;;;8354326;28;20024;-59
2022/08/17 17:46:56;;;;;;;3.85;2.60;;;;;;;;;;8354038;28;20049;-60
2022/08/17 17:50:56;;;;;;;6.05;2.58;;;;;;;;;;8350660;28;20555;-59
2022/08/17 17:55:11;;;;;;;4.93;2.50;;;;;;;;;;8352777;28;20120;-59
2022/08/17 17:59:18;;;;;;;3.45;2.28;;;;;;;;;;8349784;28;20067;-59
2022/08/17 18:03:37;;;;;;;5.60;2.70;;;;;;;;;;8348429;28;20094;-59
2022/08/17 18:07:43;;;;;;;2.58;2.38;;;;;;;;;;8348981;28;20032;-59
2022/08/17 18:11:43;;;;;;;3.30;2.25;;;;;;;;;;8349818;28;20140;-60
2022/08/17 18:15:49;;;;;;;2.53;2.10;;;;;;;;;;8352934;28;20036;-59
2022/08/17 18:19:52;;;;;;;2.50;2.30;;;;;;;;;;8349162;28;20491;-59
2022/08/17 18:23:54;;;;;;;2.50;2.30;;;;;;;;;;8350488;28;20032;-59
2022/08/17 18:27:54;;;;;;;4.30;2.58;;;;;;;;;;8348210;28;20068;-59
2022/08/17 18:32:17;;;;;;;6.95;2.42;;;;;;;;;;8348678;28;20037;-59
2022/08/17 18:36:47;;;;;;;2.75;2.50;;;;;;;;;;8350048;28;20037;-60
2022/08/17 18:41:17;;;;;;;3.95;2.42;;;;;;;;;;8348853;28;20110;-59
2022/08/17 18:45:32;;;;;;;3.00;2.53;;;;;;;;;;8335940;28;20725;-59
2022/08/17 18:49:32;;;;;;;3.08;2.67;;;;;;;;;;8349645;28;20586;-59
2022/08/17 18:53:37;;;;;;;5.50;2.40;;;;;;;;;;8347017;28;20087;-59
2022/08/17 18:57:51;;;;;;;3.15;2.58;;;;;;;;;;8349394;28;20059;-59
2022/08/17 19:02:07;;;;;;;4.35;2.60;;;;;;;;;;8350488;28;20032;-59
2022/08/17 19:06:28;;;;;;;2.55;2.30;;;;;;;;;;8355786;28;20088;-59
2022/08/17 19:10:35;;;;;;;3.40;2.63;;;;;;;;;;8358591;28;20031;-59
2022/08/17 19:14:35;;;;;;;4.63;2.40;;;;;;;;;;8355549;28;20461;-59
2022/08/17 19:18:38;;;;;;;4.40;2.65;;;;;;;;;;8353838;28;20032;-59
2022/08/17 19:22:45;;;;;;;2.90;2.60;;;;;;;;;;8354120;28;20078;-59
2022/08/17 19:26:49;;;;;;;3.00;2.70;;;;;;;;;;8353106;28;20881;-59
2022/08/17 19:30:53;;;;;;;3.00;2.70;;;;;;;;;;8349499;28;20154;-58
2022/08/17 19:34:54;;;;;;;2.60;2.40;;;;;;;;;;8354664;28;20067;-59
2022/08/17 19:39:06;;;;;;;4.78;2.60;;;;;;;;;;8351933;28;20078;-59
2022/08/17 19:43:26;;;;;;;4.07;2.72;;;;;;;;;;8352278;28;20032;-59
2022/08/17 19:47:36;;;;;;;4.13;2.75;;;;;;;;;;8351889;28;20622;-59
2022/08/17 19:51:45;;;;;;;3.80;2.58;;;;;;;;;;8353950;28;20063;-59
2022/08/17 19:55:56;;;;;;;4.50;2.78;;;;;;;;;;8353459;28;20024;-59
2022/08/17 20:00:11;;;;;;;3.42;2.70;;;;;;;;;;8350497;28;20034;-59
2022/08/17 20:04:19;;;;;;;4.35;3.10;;;;;;;;;;8351919;28;20731;-59
2022/08/17 20:08:22;;;;;;;5.75;2.92;;;;;;;;;;8350830;28;20024;-59
2022/08/17 20:12:26;;;;;;;3.95;2.90;;;;;;;;;;8352776;28;20020;-59
2022/08/17 20:16:26;;;;;;;3.05;2.55;;;;;;;;;;8353705;28;20036;-59
2022/08/17 20:20:26;;;;;;;3.70;2.92;;;;;;;;;;8350823;28;20563;-59
2022/08/17 20:24:31;;;;;;;3.10;2.90;;;;;;;;;;8353867;28;20144;-59
2022/08/17 20:28:34;;;;;;;2.80;2.53;;;;;;;;;;8351756;28;20035;-59
2022/08/17 20:32:47;;;;;;;2.95;2.70;;;;;;;;;;8349665;28;20433;-59
2022/08/17 20:36:57;;;;;;;3.15;2.78;;;;;;;;;;8352163;28;20167;-59
2022/08/17 20:40:58;;;;;;;3.80;2.92;;;;;;;;;;8351166;28;20536;-59
2022/08/17 20:45:04;;;;;;;4.30;2.92;;;;;;;;;;8351531;28;20949;-59
2022/08/17 20:49:07;;;;;;;3.72;3.20;;;;;;;;;;8349777;28;20048;-59
2022/08/17 20:53:12;;;;;;;2.90;2.70;;;;;;;;;;8350562;28;20020;-59
2022/08/17 20:57:31;;;;;;;3.10;2.80;;;;;;;;;;8350229;28;20500;-59
2022/08/17 21:01:37;;;;;;;4.85;3.33;;;;;;;;;;8353340;28;20492;-59
2022/08/17 21:05:37;;;;;;;3.30;3.00;;;;;;;;;;8349691;28;20214;-59
2022/08/17 21:09:38;;;;;;;4.00;3.23;;;;;;;;;;8352172;28;20094;-59
2022/08/17 21:13:57;;;;;;;3.83;3.13;;;;;;;;;;8351708;28;20044;-59
2022/08/17 21:18:05;;;;;;;4.05;3.03;;;;;;;;;;8350677;28;20402;-59
2022/08/17 21:22:20;;;;;;;3.50;3.20;;;;;;;;;;8349451;28;20052;-59
2022/08/17 21:26:23;;;;;;;3.55;3.25;;;;;;;;;;8350363;28;20309;-59
2022/08/17 21:30:45;;;;;;;5.07;3.10;;;;;;;;;;8335678;28;20044;-59
2022/08/17 21:35:05;;;;;;;3.63;2.88;;;;;;;;;;8337530;28;20021;-59
2022/08/17 21:39:07;;;;;;;4.72;3.00;;;;;;;;;;8334774;28;20058;-59
2022/08/17 21:43:25;;;;;;;5.93;3.17;;;;;;;;;;8344378;28;20039;-59
2022/08/17 21:47:27;;;;;;;3.25;2.95;;;;;;;;;;8338009;28;20113;-59
2022/08/17 21:51:28;;;;;;;3.47;3.17;;;;;;;;;;8338270;28;20089;-58
2022/08/17 21:55:29;;;;;;;5.60;3.63;;;;;;;;;;8346418;28;20100;-59
2022/08/17 21:59:35;;;;;;;5.68;3.65;;;;;;;;;;8339899;28;20024;-59
2022/08/17 22:03:37;;;;;;;3.72;3.45;;;;;;;;;;8341195;28;20060;-59
2022/08/17 22:08:00;;;;;;;5.05;3.92;;;;;;;;;;8344782;28;20103;-59
2022/08/17 22:12:11;;;;;;;4.25;3.55;;;;;;;;;;8342970;28;20131;-59
2022/08/17 22:16:16;;;;;;;4.10;3.80;;;;;;;;;;8342993;28;20541;-59
2022/08/17 22:20:17;;;;;;;5.15;4.07;;;;;;;;;;8341151;28;20595;-59
2022/08/17 22:24:23;;;;;;;6.97;4.85;;;;;;;;;;8342272;28;20734;-59
2022/08/17 22:28:43;;;;;;;6.00;4.60;;;;;;;;;;8338420;28;20678;-59
2022/08/17 22:32:45;;;;;;;5.65;4.68;;;;;;;;;;8340285;28;20037;-60
2022/08/17 22:36:46;;;;;;;4.82;4.43;;;;;;;;;;8339331;28;20103;-59
2022/08/17 22:40:48;;;;;;;6.28;4.60;;;;;;;;;;8347766;28;20070;-59
2022/08/17 22:44:49;;;;;;;10.23;5.15;;;;;;;;;;8347133;28;20181;-59
2022/08/17 22:48:52;;;;;;;6.07;5.47;;;;;;;;;;8347785;28;20036;-59
2022/08/17 23:01:34;;;;;;;6.70;5.85;;;;;;;;;;8344201;28;20137;-59
2022/08/17 23:05:35;;;;;;;5.32;4.75;;;;;;;;;;8342784;28;20032;-58
2022/08/17 23:09:36;;;;;;;6.03;5.13;;;;;;;;;;8343625;28;20024;-59
2022/08/17 23:13:36;;;;;;;5.75;5.00;;;;;;;;;;8344795;28;20039;-59
2022/08/17 23:17:37;;;;;;;6.18;5.20;;;;;;;;;;8346234;28;20553;-59
2022/08/17 23:21:37;;;;;;;6.78;5.60;;;;;;;;;;8342920;28;20032;-59
2022/08/17 23:25:37;;;;;;;6.70;5.23;;;;;;;;;;8346084;28;20032;-59
2022/08/17 23:29:40;;;;;;;6.35;5.70;;;;;;;;;;8344875;28;20286;-59
2022/08/17 23:33:41;;;;;;;;;;;;;;;;;;8345227;28;20048;-59
2022/08/17 23:37:41;;;;;;;6.30;5.70;;;;;;;;;;8343485;28;19943;-59
2022/08/17 23:41:41;;;;;;;5.95;5.45;;;;;;;;;;8342902;28;20141;-59
2022/08/17 23:45:41;;;;;;;6.10;5.60;;;;;;;;;;8345460;28;20433;-59
2022/08/17 23:49:42;;;;;;;6.95;5.75;;;;;;;;;;8345926;28;20435;-60
2022/08/17 23:53:45;;;;;;;6.65;5.80;;;;;;;;;;8345537;28;20025;-59
2022/08/17 23:57:45;;;;;;;6.43;5.35;;;;;;;;;;8347750;28;20036;-59
